createdAt,value
2018-05-16T00:00:05.375Z,16.40
2018-05-16T00:02:33.910Z,16.30
2018-05-16T00:05:03.158Z,16.10
2018-05-16T00:07:31.777Z,16.10
2018-05-16T00:10:00.318Z,16.00
2018-05-16T00:12:28.793Z,15.80
2018-05-16T00:14:57.289Z,15.60
2018-05-16T00:17:25.798Z,15.50
2018-05-16T00:19:54.306Z,15.30
2018-05-16T00:22:23.544Z,15.30
2018-05-16T00:24:52.063Z,15.30
2018-05-16T00:27:20.597Z,15.30
2018-05-16T00:29:49.112Z,15.30
2018-05-16T00:32:17.650Z,15.20
2018-05-16T00:34:46.160Z,15.10
2018-05-16T00:37:14.683Z,15.10
2018-05-16T00:39:43.415Z,15.10
2018-05-16T00:42:11.926Z,15.00
2018-05-16T00:44:40.438Z,15.00
2018-05-16T00:47:08.989Z,14.90
2018-05-16T00:49:37.515Z,14.80
2018-05-16T00:52:06.032Z,14.80
2018-05-16T00:54:34.501Z,14.70
2018-05-16T00:57:02.993Z,14.70
2018-05-16T00:59:31.504Z,14.60
2018-05-16T01:01:59.991Z,14.50
2018-05-16T01:04:28.534Z,14.40
2018-05-16T01:06:57.068Z,14.30
2018-05-16T01:09:25.593Z,14.30
2018-05-16T01:11:54.191Z,14.10
2018-05-16T01:14:22.757Z,14.00
2018-05-16T01:16:51.287Z,13.90
2018-05-16T01:19:19.783Z,13.80
2018-05-16T01:21:48.410Z,13.80
2018-05-16T01:24:16.914Z,13.90
2018-05-16T01:26:45.428Z,13.90
2018-05-16T01:29:13.929Z,14.00
2018-05-16T01:31:42.467Z,14.00
2018-05-16T01:34:11.003Z,14.00
2018-05-16T01:36:39.505Z,13.80
2018-05-16T01:39:07.988Z,13.80
2018-05-16T01:41:36.516Z,13.80
2018-05-16T01:44:05.058Z,13.70
2018-05-16T01:46:33.578Z,13.70
2018-05-16T01:49:13.748Z,13.70
2018-05-16T01:51:42.297Z,13.60
2018-05-16T01:54:10.796Z,13.60
2018-05-16T01:56:39.313Z,13.60
2018-05-16T01:59:07.840Z,13.60
2018-05-16T02:01:36.433Z,13.60
2018-05-16T02:04:04.964Z,13.70
2018-05-16T02:06:33.520Z,13.70
2018-05-16T02:09:02.861Z,13.60
2018-05-16T02:11:31.497Z,13.60
2018-05-16T02:13:59.993Z,13.60
2018-05-16T02:16:28.495Z,13.60
2018-05-16T02:18:57.047Z,13.60
2018-05-16T02:21:25.644Z,13.70
2018-05-16T02:23:54.888Z,13.80
2018-05-16T02:26:23.505Z,13.70
2018-05-16T02:28:52.035Z,13.80
2018-05-16T02:31:20.525Z,13.80
2018-05-16T02:33:49.122Z,13.80
2018-05-16T02:36:17.644Z,13.90
2018-05-16T02:38:46.155Z,13.90
2018-05-16T02:41:14.648Z,13.90
2018-05-16T02:43:43.143Z,14.00
2018-05-16T02:46:11.659Z,14.00
2018-05-16T02:48:40.264Z,14.00
2018-05-16T02:51:08.783Z,14.00
2018-05-16T02:53:37.289Z,14.10
2018-05-16T02:56:05.845Z,14.10
2018-05-16T02:58:34.503Z,14.10
2018-05-16T03:01:03.015Z,14.10
2018-05-16T03:03:31.526Z,14.10
2018-05-16T03:06:00.149Z,14.20
2018-05-16T03:08:28.675Z,14.20
2018-05-16T03:10:57.216Z,14.20
2018-05-16T03:13:25.820Z,14.30
2018-05-16T03:15:54.325Z,14.70
2018-05-16T03:18:22.868Z,15.10
2018-05-16T03:20:51.353Z,15.70
2018-05-16T03:23:20.243Z,16.00
2018-05-16T03:25:48.761Z,16.30
2018-05-16T03:28:17.709Z,16.40
2018-05-16T03:30:46.991Z,16.10
2018-05-16T03:33:15.479Z,16.20
2018-05-16T03:35:44.733Z,15.50
2018-05-16T03:38:13.255Z,15.50
2018-05-16T03:40:41.765Z,15.40
2018-05-16T03:43:10.263Z,15.40
2018-05-16T03:45:38.913Z,15.30
2018-05-16T03:48:07.427Z,15.30
2018-05-16T03:50:35.977Z,15.30
2018-05-16T03:53:04.502Z,15.20
2018-05-16T03:55:33.117Z,15.20
2018-05-16T03:58:22.341Z,15.40
2018-05-16T04:01:02.734Z,16.00
2018-05-16T04:03:43.009Z,16.80
2018-05-16T04:06:11.488Z,17.80
2018-05-16T04:08:40.095Z,18.70
2018-05-16T04:11:09.422Z,20.60
2018-05-16T04:13:37.915Z,20.50
2018-05-16T04:16:06.407Z,21.20
2018-05-16T04:18:34.912Z,21.90
2018-05-16T04:21:03.512Z,22.50
2018-05-16T04:23:32.790Z,23.80
2018-05-16T04:26:01.279Z,23.70
2018-05-16T04:28:29.762Z,24.00
2018-05-16T04:30:58.281Z,23.90
2018-05-16T04:33:26.909Z,24.20
2018-05-16T04:35:55.387Z,24.50
2018-05-16T04:38:23.874Z,24.80
2018-05-16T04:40:52.378Z,25.10
2018-05-16T04:43:20.844Z,25.30
2018-05-16T04:45:49.338Z,25.60
2018-05-16T04:48:17.855Z,25.90
2018-05-16T04:50:46.351Z,25.80
2018-05-16T04:53:14.825Z,26.00
2018-05-16T04:55:46.846Z,26.20
2018-05-16T04:58:15.432Z,26.60
2018-05-16T05:00:44.012Z,26.60
2018-05-16T05:03:12.888Z,26.60
2018-05-16T05:05:41.398Z,26.60
2018-05-16T05:08:09.921Z,27.10
2018-05-16T05:10:38.429Z,26.60
2018-05-16T05:13:06.952Z,26.20
2018-05-16T05:15:37.174Z,26.00
2018-05-16T05:18:07.864Z,26.00
2018-05-16T05:20:38.523Z,26.30
2018-05-16T05:23:07.015Z,26.50
2018-05-16T05:25:39.141Z,26.30
2018-05-16T05:28:10.572Z,26.20
2018-05-16T05:30:39.756Z,26.00
2018-05-16T05:33:08.545Z,26.30
2018-05-16T05:35:37.039Z,26.50
2018-05-16T05:38:05.566Z,26.60
2018-05-16T05:40:34.052Z,26.60
2018-05-16T05:43:02.528Z,26.30
2018-05-16T05:45:31.079Z,25.90
2018-05-16T05:47:59.557Z,25.60
2018-05-16T05:50:28.065Z,25.20
2018-05-16T05:52:56.681Z,24.80
2018-05-16T05:55:25.312Z,24.40
2018-05-16T05:57:53.824Z,24.10
2018-05-16T06:00:22.512Z,23.90
2018-05-16T06:02:51.036Z,23.40
2018-05-16T06:05:19.720Z,23.00
2018-05-16T06:07:48.188Z,22.90
2018-05-16T06:10:16.714Z,23.00
2018-05-16T06:12:45.368Z,22.80
2018-05-16T06:15:13.862Z,22.70
2018-05-16T06:17:42.374Z,22.50
2018-05-16T06:20:10.999Z,22.30
2018-05-16T06:22:39.522Z,22.20
2018-05-16T06:25:08.007Z,22.10
2018-05-16T06:27:36.513Z,22.10
2018-05-16T06:30:05.029Z,22.10
2018-05-16T06:32:33.652Z,22.00
2018-05-16T06:35:02.237Z,22.10
2018-05-16T06:37:30.712Z,22.20
2018-05-16T06:39:59.312Z,22.30
2018-05-16T06:42:27.942Z,22.30
2018-05-16T06:44:56.762Z,22.20
2018-05-16T06:47:25.278Z,22.10
2018-05-16T06:49:53.820Z,22.00
2018-05-16T06:52:22.317Z,22.10
2018-05-16T06:54:50.830Z,22.20
2018-05-16T06:57:19.441Z,22.30
2018-05-16T06:59:47.923Z,22.30
2018-05-16T07:02:16.444Z,22.30
2018-05-16T07:04:44.931Z,22.50
2018-05-16T07:07:13.477Z,22.50
2018-05-16T07:09:41.994Z,22.60
2018-05-16T07:12:10.512Z,22.70
2018-05-16T07:14:39.011Z,22.80
2018-05-16T07:17:07.619Z,23.00
2018-05-16T07:19:36.221Z,23.10
2018-05-16T07:22:04.719Z,22.90
2018-05-16T07:24:33.262Z,22.70
2018-05-16T07:27:01.764Z,22.60
2018-05-16T07:29:30.299Z,22.50
2018-05-16T07:31:58.798Z,22.50
2018-05-16T07:34:27.290Z,22.70
2018-05-16T07:36:55.895Z,22.80
2018-05-16T07:39:24.406Z,22.90
2018-05-16T07:41:52.933Z,23.00
2018-05-16T07:44:21.438Z,23.10
2018-05-16T07:46:49.955Z,23.10
2018-05-16T07:49:18.460Z,23.10
2018-05-16T07:51:47.764Z,23.20
2018-05-16T07:54:16.359Z,23.20
2018-05-16T07:56:44.864Z,23.40
2018-05-16T07:59:13.465Z,23.40
2018-05-16T08:01:42.065Z,23.40
2018-05-16T08:04:10.542Z,23.40
2018-05-16T08:06:39.170Z,23.50
2018-05-16T08:09:07.660Z,23.70
2018-05-16T08:11:36.146Z,23.70
2018-05-16T08:14:04.677Z,23.70
2018-05-16T08:16:33.189Z,23.80
2018-05-16T08:19:02.429Z,23.50
2018-05-16T08:21:30.924Z,23.50
2018-05-16T08:23:59.448Z,23.40
2018-05-16T08:26:28.060Z,23.50
2018-05-16T08:28:56.628Z,23.60
2018-05-16T08:31:25.119Z,23.50
2018-05-16T08:33:53.632Z,23.50
2018-05-16T08:36:22.461Z,23.30
2018-05-16T08:38:51.084Z,23.10
2018-05-16T08:41:19.580Z,23.10
2018-05-16T08:43:48.071Z,23.30
2018-05-16T08:46:16.589Z,23.20
2018-05-16T08:48:45.946Z,23.20
2018-05-16T08:51:14.464Z,23.20
2018-05-16T08:53:42.955Z,23.20
2018-05-16T08:56:11.596Z,23.30
2018-05-16T08:58:40.086Z,23.30
2018-05-16T09:01:08.736Z,23.40
2018-05-16T09:03:37.261Z,23.60
2018-05-16T09:06:05.791Z,23.70
2018-05-16T09:08:34.326Z,23.70
2018-05-16T09:11:02.833Z,23.70
2018-05-16T09:13:31.449Z,23.80
2018-05-16T09:15:59.942Z,23.80
2018-05-16T09:18:28.434Z,23.80
2018-05-16T09:20:56.965Z,23.80
2018-05-16T09:23:26.224Z,23.80
2018-05-16T09:25:54.718Z,23.80
2018-05-16T09:28:23.221Z,23.90
2018-05-16T09:30:51.743Z,23.90
2018-05-16T09:33:20.243Z,23.90
2018-05-16T09:35:48.833Z,24.20
2018-05-16T09:38:17.431Z,24.40
2018-05-16T09:40:46.077Z,24.60
2018-05-16T09:43:14.663Z,24.60
2018-05-16T09:45:43.205Z,24.70
2018-05-16T09:48:11.755Z,24.60
2018-05-16T09:50:40.250Z,24.50
2018-05-16T09:53:08.769Z,24.50
2018-05-16T09:55:37.271Z,24.60
2018-05-16T09:58:05.881Z,24.80
2018-05-16T10:00:34.410Z,24.80
2018-05-16T10:03:02.920Z,24.80
2018-05-16T10:05:31.415Z,24.80
2018-05-16T10:07:59.917Z,24.90
2018-05-16T10:10:28.441Z,25.00
2018-05-16T10:12:56.941Z,25.10
2018-05-16T10:15:25.431Z,25.20
2018-05-16T10:17:54.029Z,25.30
2018-05-16T10:20:22.527Z,25.60
2018-05-16T10:22:51.112Z,25.70
2018-05-16T10:25:19.723Z,25.90
2018-05-16T10:27:48.225Z,26.00
2018-05-16T10:30:16.824Z,26.00
2018-05-16T10:32:45.405Z,26.20
2018-05-16T10:35:13.915Z,26.30
2018-05-16T10:37:42.417Z,26.40
2018-05-16T10:40:11.003Z,26.60
2018-05-16T10:42:39.506Z,26.80
2018-05-16T10:45:08.753Z,26.80
2018-05-16T10:47:37.275Z,26.80
2018-05-16T10:50:06.645Z,26.90
2018-05-16T10:52:35.179Z,26.90
2018-05-16T10:55:03.797Z,27.00
2018-05-16T10:57:32.301Z,27.20
2018-05-16T11:00:00.897Z,27.40
2018-05-16T11:02:29.412Z,27.50
2018-05-16T11:04:57.917Z,27.60
2018-05-16T11:07:26.415Z,27.80
2018-05-16T11:09:54.921Z,27.90
2018-05-16T11:12:23.406Z,28.00
2018-05-16T11:14:52.012Z,28.20
2018-05-16T11:17:20.521Z,28.30
2018-05-16T11:19:49.017Z,28.50
2018-05-16T11:22:17.526Z,28.60
2018-05-16T11:24:46.136Z,28.60
2018-05-16T11:27:14.624Z,28.60
2018-05-16T11:29:43.929Z,28.90
2018-05-16T11:32:12.517Z,28.80
2018-05-16T11:34:41.052Z,28.90
2018-05-16T11:37:09.526Z,28.90
2018-05-16T11:39:38.762Z,29.00
2018-05-16T11:42:07.253Z,29.00
2018-05-16T11:44:35.744Z,29.10
2018-05-16T11:49:31.704Z,29.20
2018-05-16T11:52:00.207Z,29.10
2018-05-16T11:54:28.773Z,29.10
2018-05-16T11:56:57.401Z,29.20
2018-05-16T11:59:25.905Z,29.30
2018-05-16T12:01:54.408Z,29.40
2018-05-16T12:04:23.008Z,29.30
2018-05-16T12:06:51.663Z,29.30
2018-05-16T12:09:20.148Z,29.30
2018-05-16T12:11:48.649Z,29.40
2018-05-16T12:14:17.140Z,29.20
2018-05-16T12:16:45.768Z,29.10
2018-05-16T12:19:14.263Z,28.80
2018-05-16T12:21:42.869Z,28.50
2018-05-16T12:24:11.326Z,28.30
2018-05-16T12:26:39.970Z,28.30
2018-05-16T12:29:08.494Z,28.30
2018-05-16T12:31:37.846Z,28.40
2018-05-16T12:34:06.328Z,28.40
2018-05-16T12:36:34.960Z,28.60
2018-05-16T12:39:03.638Z,28.60
2018-05-16T12:41:32.076Z,28.80
2018-05-16T12:44:00.569Z,28.80
2018-05-16T12:46:29.047Z,28.70
2018-05-16T12:48:57.523Z,28.70
2018-05-16T12:51:26.124Z,28.70
2018-05-16T12:53:54.608Z,28.70
2018-05-16T12:56:23.214Z,28.80
2018-05-16T12:58:51.725Z,28.90
2018-05-16T13:01:20.315Z,29.00
2018-05-16T13:03:48.802Z,29.20
2018-05-16T13:06:17.300Z,29.20
2018-05-16T13:08:46.602Z,29.30
2018-05-16T13:11:15.100Z,29.30
2018-05-16T13:13:43.579Z,29.40
2018-05-16T13:16:12.120Z,29.50
2018-05-16T13:18:40.670Z,29.60
2018-05-16T13:21:09.142Z,29.70
2018-05-16T13:23:37.690Z,29.90
2018-05-16T13:26:06.199Z,30.10
2018-05-16T13:28:34.684Z,30.20
2018-05-16T13:31:03.312Z,30.30
2018-05-16T13:33:31.776Z,30.30
2018-05-16T13:36:00.366Z,30.20
2018-05-16T13:38:28.930Z,30.10
2018-05-16T13:40:57.420Z,29.90
2018-05-16T13:43:25.904Z,29.90
2018-05-16T13:45:54.420Z,29.80
2018-05-16T13:48:22.902Z,29.90
2018-05-16T13:50:51.438Z,29.90
2018-05-16T13:53:20.006Z,29.90
2018-05-16T13:55:48.619Z,30.00
2018-05-16T13:58:17.099Z,30.00
2018-05-16T14:00:45.594Z,30.00
2018-05-16T14:03:14.210Z,29.90
2018-05-16T14:05:43.469Z,29.80
2018-05-16T14:08:11.937Z,29.90
2018-05-16T14:10:40.512Z,29.80
2018-05-16T14:13:09.880Z,29.70
2018-05-16T14:15:38.479Z,29.70
2018-05-16T14:18:06.975Z,29.70
2018-05-16T14:20:36.350Z,30.00
2018-05-16T14:23:04.876Z,29.90
2018-05-16T14:25:33.375Z,30.10
2018-05-16T14:28:02.207Z,30.10
2018-05-16T14:30:30.851Z,30.20
2018-05-16T14:32:59.351Z,30.30
2018-05-16T14:35:28.703Z,30.40
2018-05-16T14:37:57.199Z,30.50
2018-05-16T14:40:25.827Z,30.60
2018-05-16T14:42:54.440Z,30.50
2018-05-16T14:45:22.875Z,30.50
2018-05-16T14:47:51.360Z,30.30
2018-05-16T14:50:19.848Z,30.30
2018-05-16T14:52:48.330Z,30.40
2018-05-16T14:55:17.684Z,30.40
2018-05-16T14:57:46.153Z,30.20
2018-05-16T15:00:14.764Z,30.10
2018-05-16T15:02:43.277Z,29.90
2018-05-16T15:05:11.831Z,29.90
2018-05-16T15:07:40.442Z,29.90
2018-05-16T15:10:08.998Z,29.80
2018-05-16T15:12:37.527Z,29.70
2018-05-16T15:15:06.103Z,29.60
2018-05-16T15:17:35.476Z,29.50
2018-05-16T15:20:04.018Z,29.50
2018-05-16T15:22:32.523Z,29.50
2018-05-16T15:25:01.137Z,29.70
2018-05-16T15:27:29.811Z,29.60
2018-05-16T15:29:58.301Z,29.60
2018-05-16T15:32:26.789Z,29.50
2018-05-16T15:34:55.268Z,29.50
2018-05-16T15:37:23.857Z,29.50
2018-05-16T15:39:52.488Z,29.50
2018-05-16T15:42:21.030Z,29.50
2018-05-16T15:44:49.528Z,29.60
2018-05-16T15:47:18.147Z,29.50
2018-05-16T15:49:46.646Z,29.30
2018-05-16T15:55:47.584Z,29.40
2018-05-16T15:58:16.938Z,29.30
2018-05-16T16:00:45.530Z,29.30
2018-05-16T16:03:14.032Z,29.20
2018-05-16T16:05:42.570Z,29.20
2018-05-16T16:08:11.160Z,29.20
2018-05-16T16:10:39.658Z,29.20
2018-05-16T16:13:08.176Z,29.20
2018-05-16T16:15:36.776Z,29.20
2018-05-16T16:18:05.257Z,29.10
2018-05-16T16:20:33.795Z,29.10
2018-05-16T16:23:02.316Z,29.20
2018-05-16T16:25:30.822Z,29.10
2018-05-16T16:27:59.314Z,28.90
2018-05-16T16:30:27.853Z,28.70
2018-05-16T16:32:56.500Z,28.60
2018-05-16T16:35:25.017Z,28.60
2018-05-16T16:37:53.485Z,28.60
2018-05-16T16:40:22.027Z,28.50
2018-05-16T16:42:50.662Z,28.50
2018-05-16T16:45:19.288Z,28.50
2018-05-16T16:47:47.760Z,28.40
2018-05-16T16:50:16.425Z,28.40
2018-05-16T16:52:44.920Z,28.40
2018-05-16T16:55:13.533Z,28.40
2018-05-16T16:57:42.024Z,28.50
2018-05-16T17:00:10.561Z,28.50
2018-05-16T17:02:39.160Z,28.50
2018-05-16T17:05:07.672Z,28.50
2018-05-16T17:07:36.213Z,28.50
2018-05-16T17:10:04.847Z,28.50
2018-05-16T17:12:33.344Z,28.50
2018-05-16T17:15:01.818Z,28.40
2018-05-16T17:17:30.329Z,28.30
2018-05-16T17:19:58.821Z,28.30
2018-05-16T17:22:27.655Z,28.40
2018-05-16T17:24:56.120Z,28.40
2018-05-16T17:27:24.614Z,28.40
2018-05-16T17:29:53.224Z,28.40
2018-05-16T17:32:22.043Z,28.50
2018-05-16T17:34:50.537Z,28.60
2018-05-16T17:37:19.038Z,28.60
2018-05-16T17:39:47.539Z,28.70
2018-05-16T17:42:16.023Z,28.80
2018-05-16T17:44:44.525Z,28.80
2018-05-16T17:47:13.077Z,28.70
2018-05-16T17:49:41.591Z,28.70
2018-05-16T17:52:10.088Z,28.80
2018-05-16T17:54:39.340Z,28.90
2018-05-16T17:57:07.859Z,28.90
2018-05-16T17:59:37.121Z,29.00
2018-05-16T18:02:06.379Z,29.10
2018-05-16T18:04:34.925Z,29.00
2018-05-16T18:07:03.407Z,29.10
2018-05-16T18:09:31.890Z,29.10
2018-05-16T18:12:00.404Z,29.00
2018-05-16T18:17:28.916Z,28.70
2018-05-16T18:19:57.384Z,28.50
2018-05-16T18:22:25.871Z,28.30
2018-05-16T18:24:54.419Z,28.00
2018-05-16T18:27:22.920Z,27.80
2018-05-16T18:29:51.432Z,27.60
2018-05-16T18:32:19.933Z,27.40
2018-05-16T18:34:48.407Z,27.20
2018-05-16T18:37:16.913Z,27.00
2018-05-16T18:39:46.219Z,26.70
2018-05-16T18:42:14.720Z,26.60
2018-05-16T18:44:43.244Z,26.50
2018-05-16T18:47:11.747Z,26.30
2018-05-16T18:49:40.396Z,26.20
2018-05-16T18:52:08.882Z,26.00
2018-05-16T18:54:37.486Z,25.80
2018-05-16T18:57:06.142Z,25.70
2018-05-16T18:59:34.628Z,25.50
2018-05-16T19:02:03.266Z,25.30
2018-05-16T19:04:31.868Z,25.10
2018-05-16T19:07:01.130Z,24.70
2018-05-16T19:09:29.658Z,24.70
2018-05-16T19:11:58.893Z,24.40
2018-05-16T19:14:28.215Z,24.20
2018-05-16T19:16:57.508Z,24.00
2018-05-16T19:19:26.122Z,24.00
2018-05-16T19:21:54.643Z,23.90
2018-05-16T19:24:23.132Z,23.80
2018-05-16T19:26:51.640Z,23.80
2018-05-16T19:29:20.240Z,23.60
2018-05-16T19:31:48.752Z,23.50
2018-05-16T19:34:17.505Z,23.30
2018-05-16T19:36:46.004Z,23.20
2018-05-16T19:39:15.268Z,22.90
2018-05-16T19:41:43.770Z,22.90
2018-05-16T19:44:13.072Z,22.50
2018-05-16T19:46:41.568Z,22.60
2018-05-16T19:53:45.594Z,22.20
2018-05-16T19:56:14.218Z,21.90
2018-05-16T19:58:42.724Z,21.70
2018-05-16T20:01:11.252Z,21.70
2018-05-16T20:03:39.757Z,21.60
2018-05-16T20:06:08.341Z,21.40
2018-05-16T20:08:36.842Z,21.30
2018-05-16T20:11:05.391Z,21.20
2018-05-16T20:13:34.006Z,21.10
2018-05-16T20:16:02.519Z,21.00
2018-05-16T20:18:30.989Z,20.80
2018-05-16T20:20:59.471Z,20.80
2018-05-16T20:23:27.968Z,20.80
2018-05-16T20:25:56.577Z,20.70
2018-05-16T20:28:25.173Z,20.80
2018-05-16T20:30:53.691Z,20.70
2018-05-16T20:33:22.188Z,20.60
2018-05-16T20:35:50.685Z,20.50
2018-05-16T20:38:19.164Z,20.40
2018-05-16T20:40:47.660Z,20.30
2018-05-16T20:43:16.972Z,20.20
2018-05-16T20:45:46.289Z,20.20
2018-05-16T20:48:15.689Z,20.20
2018-05-16T20:50:44.244Z,20.10
2018-05-16T20:53:12.759Z,20.10
2018-05-16T20:55:41.375Z,20.10
2018-05-16T20:58:09.856Z,20.00
2018-05-16T21:00:38.467Z,20.00
2018-05-16T21:03:06.984Z,19.90
2018-05-16T21:05:35.479Z,19.90
2018-05-16T21:08:04.019Z,19.80
2018-05-16T21:10:32.650Z,19.80
2018-05-16T21:13:01.134Z,19.70
2018-05-16T21:15:29.607Z,19.70
2018-05-16T21:17:58.107Z,19.70
2018-05-16T21:20:26.585Z,19.60
2018-05-16T21:22:55.066Z,19.50
2018-05-16T21:25:23.546Z,19.50
2018-05-16T21:27:52.083Z,19.40
2018-05-16T21:30:21.340Z,19.20
2018-05-16T21:32:49.846Z,19.20
2018-05-16T21:35:18.326Z,19.20
2018-05-16T21:37:46.842Z,19.10
2018-05-16T21:40:15.384Z,19.00
2018-05-16T21:42:43.857Z,18.90
2018-05-16T21:45:12.361Z,18.80
2018-05-16T21:47:40.872Z,18.80
2018-05-16T21:50:09.407Z,18.60
2018-05-16T21:52:37.896Z,18.50
2018-05-16T21:55:06.401Z,18.50
2018-05-16T21:57:35.663Z,18.80
2018-05-16T22:00:04.335Z,18.80
2018-05-16T22:02:32.890Z,19.00
2018-05-16T22:05:01.392Z,19.10
2018-05-16T22:07:29.884Z,19.20
2018-05-16T22:09:58.366Z,19.40
2018-05-16T22:12:26.963Z,19.40
2018-05-16T22:14:55.424Z,19.50
2018-05-16T22:24:07.770Z,19.60
2018-05-16T22:26:36.263Z,19.40
2018-05-16T22:29:04.797Z,19.40
2018-05-16T22:31:39.588Z,19.30
2018-05-16T22:34:13.739Z,19.30
2018-05-16T22:36:47.932Z,19.20
2018-05-16T22:39:22.113Z,19.20
2018-05-16T22:41:56.377Z,19.10
2018-05-16T22:44:42.785Z,19.00
2018-05-16T22:47:12.051Z,18.70
2018-05-16T22:49:40.562Z,18.70
2018-05-16T22:52:09.801Z,18.50
2018-05-16T22:54:38.475Z,18.40
2018-05-16T22:57:06.991Z,18.40
2018-05-16T22:59:35.465Z,18.20
2018-05-16T23:02:03.976Z,18.00
2018-05-16T23:04:33.289Z,17.80
2018-05-16T23:07:01.859Z,17.70
2018-05-16T23:09:30.464Z,17.60
2018-05-16T23:11:59.716Z,17.40
2018-05-16T23:14:28.227Z,17.40
2018-05-16T23:16:56.719Z,17.30
2018-05-16T23:19:26.000Z,17.20
2018-05-16T23:21:55.317Z,17.10
2018-05-16T23:24:23.825Z,17.10
2018-05-16T23:26:52.355Z,17.10
2018-05-16T23:29:20.942Z,16.90
2018-05-16T23:31:49.450Z,16.80
2018-05-16T23:34:18.731Z,16.70
2018-05-16T23:36:47.271Z,16.70
2018-05-16T23:39:15.759Z,16.60
2018-05-16T23:41:44.265Z,16.60
2018-05-16T23:44:12.771Z,16.50
2018-05-16T23:46:41.274Z,16.40
2018-05-16T23:49:09.779Z,16.40
2018-05-16T23:51:38.361Z,16.30
2018-05-16T23:54:06.850Z,16.20
2018-05-16T23:56:35.379Z,16.10
2018-05-16T23:59:03.867Z,16.10
